createdAt,value
2017-06-22T00:01:38.401Z,23.70
2017-06-22T00:04:06.687Z,23.80
2017-06-22T00:06:35.087Z,23.80
2017-06-22T00:09:04.138Z,23.70
2017-06-22T00:11:33.688Z,23.70
2017-06-22T00:14:02.156Z,23.60
2017-06-22T00:16:30.472Z,23.60
2017-06-22T00:18:58.746Z,23.60
2017-06-22T00:21:27.094Z,23.50
2017-06-22T00:23:55.370Z,23.40
2017-06-22T00:26:23.668Z,23.40
2017-06-22T00:28:52.774Z,23.30
2017-06-22T00:31:21.055Z,23.30
2017-06-22T00:33:49.343Z,23.20
2017-06-22T00:36:17.700Z,23.20
2017-06-22T00:38:45.978Z,23.20
2017-06-22T00:43:44.210Z,23.00
2017-06-22T00:46:12.491Z,23.00
2017-06-22T00:48:40.775Z,23.00
2017-06-22T00:51:09.873Z,23.00
2017-06-22T00:53:38.178Z,22.90
2017-06-22T00:56:06.494Z,22.90
2017-06-22T00:58:36.351Z,22.90
2017-06-22T01:01:04.670Z,22.90
2017-06-22T01:03:32.962Z,22.90
2017-06-22T01:06:01.299Z,22.90
2017-06-22T01:08:29.578Z,22.90
2017-06-22T01:10:58.667Z,22.90
2017-06-22T01:13:26.987Z,22.90
2017-06-22T01:15:55.294Z,22.90
2017-06-22T01:18:23.596Z,22.90
2017-06-22T01:20:52.346Z,22.90
2017-06-22T01:23:22.220Z,23.00
2017-06-22T01:25:50.499Z,23.00
2017-06-22T01:28:19.194Z,23.00
2017-06-22T01:33:17.752Z,23.00
2017-06-22T01:35:46.074Z,23.10
2017-06-22T01:38:14.354Z,23.10
2017-06-22T01:40:44.163Z,23.20
2017-06-22T01:43:13.219Z,23.20
2017-06-22T01:45:41.891Z,23.20
2017-06-22T01:48:10.937Z,23.20
2017-06-22T01:50:39.279Z,23.20
2017-06-22T01:55:37.094Z,23.30
2017-06-22T01:58:05.717Z,23.30
2017-06-22T02:00:35.572Z,23.30
2017-06-22T02:03:04.049Z,23.30
2017-06-22T02:05:32.381Z,23.30
2017-06-22T02:08:02.191Z,23.30
2017-06-22T02:10:30.572Z,23.40
2017-06-22T02:12:58.902Z,23.40
2017-06-22T02:15:27.622Z,23.40
2017-06-22T02:17:57.054Z,23.40
2017-06-22T02:20:26.187Z,23.50
2017-06-22T02:22:55.975Z,23.50
2017-06-22T02:25:25.031Z,23.50
2017-06-22T02:30:22.904Z,23.50
2017-06-22T02:32:51.198Z,23.60
2017-06-22T02:35:19.711Z,23.70
2017-06-22T02:37:48.762Z,23.60
2017-06-22T02:40:17.059Z,23.70
2017-06-22T02:42:45.396Z,23.80
2017-06-22T02:45:13.683Z,23.80
2017-06-22T02:47:42.374Z,23.80
2017-06-22T02:50:12.396Z,23.80
2017-06-22T02:52:41.446Z,23.80
2017-06-22T02:57:39.791Z,23.70
2017-06-22T03:00:08.117Z,23.70
2017-06-22T03:02:37.939Z,23.70
2017-06-22T03:05:08.807Z,23.80
2017-06-22T03:07:49.819Z,23.80
2017-06-22T03:10:18.339Z,23.70
2017-06-22T03:12:46.635Z,23.80
2017-06-22T03:15:14.923Z,23.80
2017-06-22T03:17:43.262Z,23.80
2017-06-22T03:20:11.550Z,23.80
2017-06-22T03:22:40.979Z,23.70
2017-06-22T03:25:09.479Z,23.70
2017-06-22T03:27:37.793Z,23.70
2017-06-22T03:32:36.107Z,23.70
2017-06-22T03:35:04.437Z,23.60
2017-06-22T03:37:33.532Z,23.60
2017-06-22T03:40:01.896Z,23.60
2017-06-22T03:42:31.694Z,23.50
2017-06-22T03:44:59.986Z,23.60
2017-06-22T03:47:28.420Z,23.50
2017-06-22T03:49:56.710Z,23.50
2017-06-22T03:52:26.139Z,23.50
2017-06-22T03:54:55.246Z,23.50
2017-06-22T03:57:24.316Z,23.50
2017-06-22T03:59:52.642Z,23.60
2017-06-22T04:02:20.974Z,23.60
2017-06-22T04:04:49.262Z,23.50
2017-06-22T04:07:17.558Z,23.50
2017-06-22T04:09:47.562Z,23.50
2017-06-22T04:12:16.991Z,23.40
2017-06-22T04:14:46.051Z,23.60
2017-06-22T04:17:14.387Z,23.60
2017-06-22T04:22:13.339Z,23.60
2017-06-22T04:24:41.831Z,23.60
2017-06-22T04:27:11.634Z,23.60
2017-06-22T04:29:39.922Z,23.60
2017-06-22T04:32:08.298Z,23.70
2017-06-22T04:34:36.639Z,23.70
2017-06-22T04:37:04.963Z,23.70
2017-06-22T04:39:33.344Z,23.70
2017-06-22T04:42:02.406Z,23.70
2017-06-22T04:44:31.479Z,23.80
2017-06-22T04:49:29.744Z,23.80
2017-06-22T04:51:59.539Z,23.90
2017-06-22T04:54:27.894Z,23.90
2017-06-22T04:59:26.118Z,24.00
2017-06-22T05:01:55.255Z,24.10
2017-06-22T05:06:53.501Z,24.10
2017-06-22T05:09:21.852Z,24.20
2017-06-22T05:11:50.154Z,24.30
2017-06-22T05:16:48.718Z,24.30
2017-06-22T05:19:18.151Z,24.40
2017-06-22T05:21:46.444Z,24.40
2017-06-22T05:24:14.927Z,24.40
2017-06-22T05:26:44.731Z,24.50
2017-06-22T05:31:44.331Z,24.50
2017-06-22T05:34:13.400Z,24.60
2017-06-22T05:39:12.124Z,24.80
2017-06-22T05:41:40.839Z,24.80
2017-06-22T05:44:09.923Z,24.90
2017-06-22T05:46:39.410Z,24.90
2017-06-22T05:49:09.222Z,25.00
2017-06-22T05:51:37.540Z,25.00
2017-06-22T05:54:05.931Z,25.10
2017-06-22T05:56:35.017Z,25.10
2017-06-22T05:59:03.758Z,25.20
2017-06-22T06:01:32.092Z,25.30
2017-06-22T06:04:00.396Z,25.50
2017-06-22T06:06:28.683Z,25.50
2017-06-22T06:08:58.526Z,25.70
2017-06-22T06:11:26.825Z,25.80
2017-06-22T06:13:55.111Z,25.90
2017-06-22T06:16:23.451Z,26.00
2017-06-22T06:18:51.768Z,26.10
2017-06-22T06:21:20.851Z,26.20
2017-06-22T06:23:50.702Z,26.20
2017-06-22T06:26:20.132Z,26.30
2017-06-22T06:28:49.559Z,26.50
2017-06-22T06:31:17.910Z,26.60
2017-06-22T06:33:47.354Z,26.70
2017-06-22T06:36:15.643Z,26.90
2017-06-22T06:38:44.227Z,27.10
2017-06-22T06:41:12.523Z,27.30
2017-06-22T06:43:41.960Z,27.60
2017-06-22T06:46:10.379Z,27.80
2017-06-22T06:48:40.183Z,28.00
2017-06-22T06:51:08.479Z,28.30
2017-06-22T06:53:37.224Z,28.30
2017-06-22T06:56:05.563Z,28.60
2017-06-22T06:58:34.287Z,28.80
2017-06-22T07:01:02.640Z,28.90
2017-06-22T07:03:30.935Z,29.10
2017-06-22T07:05:59.990Z,29.20
2017-06-22T07:08:29.227Z,29.40
2017-06-22T07:10:57.514Z,29.60
2017-06-22T07:13:25.807Z,29.60
2017-06-22T07:15:55.247Z,29.70
2017-06-22T07:18:23.550Z,29.70
2017-06-22T07:20:51.852Z,29.70
2017-06-22T07:23:20.645Z,29.70
2017-06-22T07:25:48.944Z,29.80
2017-06-22T07:28:17.994Z,29.90
2017-06-22T07:30:46.335Z,29.90
2017-06-22T07:33:16.149Z,30.00
2017-06-22T07:35:44.826Z,30.10
2017-06-22T07:38:13.195Z,30.10
2017-06-22T07:40:41.875Z,30.20
2017-06-22T07:43:10.571Z,30.10
2017-06-22T07:45:39.671Z,30.20
2017-06-22T07:50:37.901Z,30.20
2017-06-22T07:53:07.039Z,30.20
2017-06-22T07:55:35.361Z,30.30
2017-06-22T07:58:03.684Z,30.50
2017-06-22T08:03:01.631Z,30.90
2017-06-22T08:05:29.919Z,31.20
2017-06-22T08:07:58.247Z,31.50
2017-06-22T08:10:26.923Z,31.90
2017-06-22T08:12:55.975Z,32.00
2017-06-22T08:15:24.892Z,32.30
2017-06-22T08:17:53.227Z,32.50
2017-06-22T08:20:21.936Z,32.60
2017-06-22T08:22:51.063Z,32.70
2017-06-22T08:25:19.461Z,32.90
2017-06-22T08:27:48.540Z,33.10
2017-06-22T08:30:17.319Z,33.40
2017-06-22T08:32:46.008Z,33.70
2017-06-22T08:35:14.711Z,33.80
2017-06-22T08:38:01.524Z,34.10
2017-06-22T08:40:29.831Z,34.30
2017-06-22T08:45:59.624Z,34.70
2017-06-22T08:48:29.416Z,34.80
2017-06-22T08:50:57.701Z,34.90
2017-06-22T08:53:26.443Z,35.00
2017-06-22T08:55:54.731Z,35.10
2017-06-22T08:58:24.526Z,35.20
2017-06-22T09:00:52.873Z,35.30
2017-06-22T09:03:21.963Z,35.50
2017-06-22T09:05:51.015Z,35.60
2017-06-22T09:10:49.635Z,35.70
2017-06-22T09:13:18.691Z,35.70
2017-06-22T09:15:47.019Z,35.80
2017-06-22T09:18:16.820Z,35.90
2017-06-22T09:23:15.806Z,36.00
2017-06-22T09:25:44.866Z,36.00
2017-06-22T09:28:14.288Z,36.10
2017-06-22T09:30:44.570Z,36.20
2017-06-22T09:33:13.615Z,36.20
2017-06-22T09:35:41.903Z,36.40
2017-06-22T09:38:10.315Z,36.50
2017-06-22T09:43:08.520Z,36.60
2017-06-22T09:45:37.020Z,36.70
2017-06-22T09:48:06.092Z,36.70
2017-06-22T09:53:04.459Z,36.80
2017-06-22T09:55:32.753Z,36.90
2017-06-22T09:58:01.036Z,36.90
2017-06-22T10:00:30.495Z,37.00
2017-06-22T10:02:58.774Z,37.20
2017-06-22T10:05:27.055Z,37.30
2017-06-22T10:07:55.659Z,37.50
2017-06-22T10:10:23.962Z,37.70
2017-06-22T10:12:52.263Z,37.70
2017-06-22T10:15:22.566Z,37.70
2017-06-22T10:17:50.880Z,37.60
2017-06-22T10:20:19.191Z,37.60
2017-06-22T10:27:46.591Z,37.50
2017-06-22T10:30:15.160Z,37.40
2017-06-22T10:32:44.211Z,37.40
2017-06-22T10:35:14.015Z,37.40
2017-06-22T10:37:42.363Z,37.30
2017-06-22T10:42:40.600Z,37.30
2017-06-22T10:45:10.731Z,37.40
2017-06-22T10:47:40.792Z,37.30
2017-06-22T10:50:09.093Z,37.40
2017-06-22T10:52:37.866Z,37.40
2017-06-22T10:57:35.714Z,37.20
2017-06-22T11:00:04.082Z,37.20
2017-06-22T11:05:02.368Z,37.20
2017-06-22T11:07:31.514Z,37.30
2017-06-22T11:09:59.836Z,37.40
2017-06-22T11:12:28.919Z,37.40
2017-06-22T11:14:58.040Z,37.40
2017-06-22T11:19:56.255Z,37.70
2017-06-22T11:22:24.595Z,37.80
2017-06-22T11:24:52.888Z,37.80
2017-06-22T11:27:21.180Z,37.80
2017-06-22T11:29:49.528Z,37.90
2017-06-22T11:34:47.373Z,38.00
2017-06-22T11:37:15.728Z,38.00
2017-06-22T11:39:44.010Z,38.00
2017-06-22T11:42:12.319Z,38.00
2017-06-22T11:44:41.812Z,38.10
2017-06-22T11:47:10.120Z,38.10
2017-06-22T11:49:38.427Z,38.00
2017-06-22T11:52:06.791Z,38.10
2017-06-22T11:54:35.881Z,38.20
2017-06-22T11:57:04.941Z,38.10
2017-06-22T11:59:34.101Z,38.20
2017-06-22T12:02:02.384Z,38.20
2017-06-22T12:04:32.219Z,38.20
2017-06-22T12:07:00.560Z,38.30
2017-06-22T12:09:28.873Z,38.40
2017-06-22T12:11:57.187Z,38.40
2017-06-22T12:14:25.948Z,38.40
2017-06-22T12:16:55.811Z,38.60
2017-06-22T12:19:25.731Z,38.60
2017-06-22T12:21:55.529Z,38.60
2017-06-22T12:24:24.631Z,38.60
2017-06-22T12:26:53.719Z,38.60
2017-06-22T12:31:51.663Z,38.80
2017-06-22T12:34:20.346Z,38.70
2017-06-22T12:36:49.075Z,38.60
2017-06-22T12:39:17.757Z,38.70
2017-06-22T12:44:16.011Z,38.60
2017-06-22T12:46:45.096Z,38.70
2017-06-22T12:49:13.408Z,38.70
2017-06-22T12:51:42.531Z,38.80
2017-06-22T12:54:12.347Z,38.70
2017-06-22T12:56:41.400Z,38.60
2017-06-22T12:59:09.734Z,38.50
2017-06-22T13:01:39.179Z,38.40
2017-06-22T13:04:07.504Z,38.40
2017-06-22T13:09:06.174Z,38.30
2017-06-22T13:11:36.078Z,38.20
2017-06-22T13:14:04.469Z,38.10
2017-06-22T13:16:33.566Z,38.10
2017-06-22T13:19:02.631Z,38.20
2017-06-22T13:21:31.823Z,38.40
2017-06-22T13:26:29.679Z,38.60
2017-06-22T13:28:58.022Z,38.70
2017-06-22T13:31:29.068Z,38.60
2017-06-22T13:33:58.176Z,38.70
2017-06-22T13:38:56.418Z,38.90
2017-06-22T13:41:25.479Z,39.00
2017-06-22T13:43:54.622Z,38.90
2017-06-22T13:46:23.331Z,38.80
2017-06-22T13:51:21.908Z,38.70
2017-06-22T13:53:50.226Z,38.60
2017-06-22T13:56:19.287Z,38.50
2017-06-22T13:58:47.650Z,38.30
2017-06-22T14:01:16.727Z,38.30
2017-06-22T14:03:45.418Z,38.10
2017-06-22T14:06:13.788Z,38.10
2017-06-22T14:08:42.127Z,38.00
2017-06-22T14:13:40.070Z,37.70
2017-06-22T14:16:09.126Z,37.60
2017-06-22T14:18:38.939Z,37.60
2017-06-22T14:21:07.295Z,37.60
2017-06-22T14:23:36.009Z,37.40
2017-06-22T14:26:05.039Z,37.40
2017-06-22T14:28:33.826Z,37.20
2017-06-22T14:31:03.331Z,37.00
2017-06-22T14:33:31.623Z,36.90
2017-06-22T14:36:00.003Z,36.80
2017-06-22T14:40:57.827Z,36.50
2017-06-22T14:43:27.343Z,36.30
2017-06-22T14:45:56.420Z,36.20
2017-06-22T14:48:24.716Z,36.00
2017-06-22T14:50:53.831Z,36.00
2017-06-22T14:53:22.141Z,35.90
2017-06-22T14:55:50.436Z,35.80
2017-06-22T14:58:19.185Z,35.80
2017-06-22T15:00:48.245Z,35.80
2017-06-22T15:03:16.531Z,35.70
2017-06-22T15:05:45.454Z,35.70
2017-06-22T15:08:14.874Z,35.50
2017-06-22T15:15:42.676Z,35.30
2017-06-22T15:18:10.987Z,35.20
2017-06-22T15:20:40.151Z,35.20
2017-06-22T15:25:38.395Z,35.10
2017-06-22T15:28:07.647Z,35.00
2017-06-22T15:30:37.514Z,34.90
2017-06-22T15:33:05.835Z,34.90
2017-06-22T15:35:34.228Z,34.90
2017-06-22T15:38:02.523Z,34.80
2017-06-22T15:40:32.316Z,34.80
2017-06-22T15:43:01.098Z,34.70
2017-06-22T15:48:05.362Z,34.60
2017-06-22T15:53:04.127Z,34.60
2017-06-22T15:58:02.615Z,34.40
2017-06-22T16:00:31.671Z,34.40
2017-06-22T16:03:00.352Z,34.30
2017-06-22T16:05:29.050Z,34.30
2017-06-22T16:07:57.347Z,34.20
2017-06-22T16:10:25.719Z,34.20
2017-06-22T16:12:55.155Z,34.00
2017-06-22T16:15:24.235Z,33.70
2017-06-22T16:17:53.781Z,33.40
2017-06-22T16:20:22.092Z,32.90
2017-06-22T16:22:50.390Z,32.40
2017-06-22T16:25:18.746Z,31.80
2017-06-22T16:27:48.174Z,31.40
2017-06-22T16:30:16.459Z,30.90
2017-06-22T16:35:15.023Z,30.40
2017-06-22T16:37:44.091Z,30.20
2017-06-22T16:40:12.452Z,30.00
2017-06-22T16:45:10.283Z,29.60
2017-06-22T16:47:39.829Z,29.50
2017-06-22T16:50:08.886Z,29.40
2017-06-22T16:55:07.171Z,29.30
2017-06-22T16:57:35.855Z,29.20
2017-06-22T17:00:04.157Z,29.10
2017-06-22T17:02:32.509Z,29.00
2017-06-22T17:05:01.563Z,28.80
2017-06-22T17:10:00.303Z,28.70
2017-06-22T17:14:58.483Z,28.60
2017-06-22T17:17:26.842Z,28.60
2017-06-22T17:19:55.153Z,28.60
2017-06-22T17:22:25.837Z,28.60
2017-06-22T17:24:54.587Z,28.60
2017-06-22T17:29:52.411Z,28.50
2017-06-22T17:32:20.823Z,28.50
2017-06-22T17:34:49.107Z,28.40
2017-06-22T17:39:47.852Z,28.20
2017-06-22T17:42:16.161Z,28.10
2017-06-22T17:44:44.431Z,28.10
2017-06-22T17:47:15.245Z,28.00
2017-06-22T17:49:43.524Z,28.00
2017-06-22T17:52:12.203Z,27.90
2017-06-22T17:57:10.635Z,27.80
2017-06-22T18:02:08.946Z,27.70
2017-06-22T18:04:37.295Z,27.70
2017-06-22T18:07:05.608Z,27.70
2017-06-22T18:09:34.541Z,27.80
2017-06-22T18:12:02.885Z,27.70
2017-06-22T18:14:32.675Z,27.70
2017-06-22T18:17:01.015Z,27.70
2017-06-22T18:21:59.199Z,27.70
2017-06-22T18:24:27.658Z,27.60
2017-06-22T18:26:55.942Z,27.60
2017-06-22T18:29:25.747Z,27.60
2017-06-22T18:31:54.091Z,27.60
2017-06-22T18:34:22.420Z,27.50
2017-06-22T18:36:50.721Z,27.40
2017-06-22T18:39:19.104Z,27.30
2017-06-22T18:41:48.890Z,27.20
2017-06-22T18:46:47.127Z,27.00
2017-06-22T18:51:44.935Z,27.00
2017-06-22T18:54:14.795Z,26.90
2017-06-22T18:56:44.591Z,26.80
2017-06-22T19:01:42.883Z,26.50
2017-06-22T19:04:11.190Z,26.40
2017-06-22T19:06:40.296Z,26.30
2017-06-22T19:09:10.229Z,26.20
2017-06-22T19:11:39.320Z,26.10
2017-06-22T19:14:07.635Z,26.10
2017-06-22T19:16:36.426Z,25.90
2017-06-22T19:19:06.273Z,25.90
2017-06-22T19:21:34.579Z,25.80
2017-06-22T19:24:03.401Z,25.70
2017-06-22T19:26:32.088Z,25.60
2017-06-22T19:31:30.452Z,25.60
2017-06-22T19:33:59.572Z,25.60
2017-06-22T19:36:28.655Z,25.50
2017-06-22T19:38:57.309Z,25.40
2017-06-22T19:41:26.836Z,25.30
2017-06-22T19:43:55.720Z,25.20
2017-06-22T19:46:24.878Z,25.10
2017-06-22T19:48:53.187Z,25.10
2017-06-22T19:51:21.511Z,25.00
2017-06-22T19:53:49.935Z,25.00
2017-06-22T19:56:18.222Z,24.90
2017-06-22T19:58:48.020Z,24.90
2017-06-22T20:01:16.347Z,24.90
2017-06-22T20:03:44.642Z,24.90
2017-06-22T20:06:12.934Z,24.80
2017-06-22T20:08:42.046Z,24.80
2017-06-22T20:11:11.100Z,24.70
2017-06-22T20:13:39.420Z,24.70
2017-06-22T20:16:08.160Z,24.70
2017-06-22T20:18:36.470Z,24.60
2017-06-22T20:21:04.782Z,24.50
2017-06-22T20:23:33.123Z,24.50
2017-06-22T20:26:01.442Z,24.50
2017-06-22T20:28:30.855Z,24.50
2017-06-22T20:30:59.186Z,24.50
2017-06-22T20:33:28.239Z,24.40
2017-06-22T20:35:58.027Z,24.40
2017-06-22T20:40:55.886Z,24.40
2017-06-22T20:43:24.212Z,24.40
2017-06-22T20:45:52.870Z,24.40
2017-06-22T20:48:21.567Z,24.30
2017-06-22T20:50:49.863Z,24.30
2017-06-22T20:53:18.567Z,24.30
2017-06-22T20:55:47.251Z,24.30
2017-06-22T20:58:16.303Z,24.30
2017-06-22T21:00:45.621Z,24.30
2017-06-22T21:03:15.888Z,24.30
2017-06-22T21:05:45.310Z,24.30
2017-06-22T21:08:14.450Z,24.30
2017-06-22T21:10:42.739Z,24.30
2017-06-22T21:13:11.026Z,24.20
2017-06-22T21:15:39.642Z,24.10
2017-06-22T21:18:07.964Z,24.00
2017-06-22T21:20:36.289Z,24.00
2017-06-22T21:28:04.142Z,23.90
2017-06-22T21:33:02.804Z,23.90
2017-06-22T21:35:31.853Z,23.90
2017-06-22T21:38:00.214Z,23.80
2017-06-22T21:42:58.782Z,23.80
2017-06-22T21:45:28.260Z,23.70
2017-06-22T21:47:56.543Z,23.70
2017-06-22T21:50:24.831Z,23.60
2017-06-22T21:52:54.771Z,23.60
2017-06-22T21:55:23.063Z,23.50
2017-06-22T21:57:51.352Z,23.40
2017-06-22T22:02:51.461Z,23.20
2017-06-22T22:07:50.095Z,23.20
2017-06-22T22:10:18.377Z,23.20
2017-06-22T22:15:16.642Z,23.10
2017-06-22T22:17:45.695Z,23.00
2017-06-22T22:20:13.984Z,23.00
2017-06-22T22:22:42.349Z,23.00
2017-06-22T22:25:10.659Z,23.00
2017-06-22T22:27:40.187Z,23.00
2017-06-22T22:30:08.584Z,23.00
2017-06-22T22:32:37.284Z,23.00
2017-06-22T22:35:05.599Z,23.00
2017-06-22T22:37:34.755Z,23.00
2017-06-22T22:40:03.047Z,23.00
2017-06-22T22:45:01.939Z,23.10
2017-06-22T22:47:30.224Z,23.00
2017-06-22T22:50:10.175Z,23.00
2017-06-22T22:52:39.249Z,23.00
2017-06-22T22:55:08.319Z,23.00
2017-06-22T22:57:37.089Z,23.00
2017-06-22T23:00:05.859Z,22.90
2017-06-22T23:05:04.312Z,22.90
2017-06-22T23:07:32.598Z,22.80
2017-06-22T23:10:00.884Z,22.90
2017-06-22T23:12:30.347Z,22.90
2017-06-22T23:14:59.030Z,22.80
2017-06-22T23:17:27.322Z,22.80
2017-06-22T23:19:57.251Z,22.80
2017-06-22T23:27:25.422Z,22.70
2017-06-22T23:29:53.727Z,22.70
2017-06-22T23:32:22.018Z,22.70
2017-06-22T23:34:51.150Z,22.70
2017-06-22T23:37:20.203Z,22.60
2017-06-22T23:39:48.503Z,22.60
2017-06-22T23:42:17.597Z,22.60
2017-06-22T23:44:45.886Z,22.60
2017-06-22T23:47:15.312Z,22.60
2017-06-22T23:49:44.042Z,22.60
2017-06-22T23:54:42.260Z,22.60
2017-06-22T23:57:10.691Z,22.60
2017-06-22T23:59:39.018Z,22.50
